Date,TemperatureHighF,TemperatureAvgF,TemperatureLowF,DewpointHighF,DewpointAvgF,DewpointLowF,HumidityHigh,HumidityAvg,HumidityLow,PressureMaxIn,PressureMinIn,WindSpeedMaxMPH,WindSpeedAvgMPH,GustSpeedMaxMPH,PrecipitationSumIn
2013-8-1,76.3,70.4,65.2,65.7,62.3,58.0,90,76,59,29.89,29.78,11,2,10,0.64
2013-8-2,85.2,72.2,62.5,66.7,63.1,56.4,93,75,44,29.87,29.77,22,2,25,0.00
2013-8-3,90.8,77.3,61.1,67.2,60.2,56.0,93,60,31,29.86,29.73,10,2,12,0.00
2013-8-4,89.3,78.1,69.9,65.0,59.7,54.1,81,55,33,29.82,29.70,9,3,17,0.00
2013-8-5,82.8,71.2,63.1,65.4,60.5,55.4,90,71,40,29.89,29.72,17,4,26,0.11
2013-8-6,77.3,67.5,59.9,66.0,61.7,58.0,94,82,59,29.88,29.80,20,2,26,0.62
2013-8-7,84.7,71.8,58.4,63.5,57.3,51.6,95,64,37,29.91,29.78,10,3,16,0.00
2013-8-8,90.3,73.1,57.7,60.4,53.6,45.7,88,55,22,29.86,29.81,7,2,10,0.00
2013-8-9,90.6,75.0,57.0,58.3,51.9,46.7,79,48,24,29.83,29.75,9,2,16,0.00
2013-8-10,89.8,74.7,62.1,61.5,55.2,45.9,81,54,25,29.75,29.75,20,2,26,0.00
2013-8-11,87.8,74.3,65.2,63.7,60.3,57.8,82,64,39,29.84,29.75,17,2,20,0.00
2013-8-12,91.6,75.2,63.5,66.0,61.3,56.3,84,64,36,29.84,29.84,28,3,28,0.00
2013-8-13,90.8,75.7,63.0,71.7,61.4,55.6,84,64,36,29.84,29.84,14,2,23,0.21
2013-8-14,92.0,80.7,69.7,65.1,61.2,54.8,79,54,33,29.84,29.84,16,2,17,0.01
2013-8-15,91.8,79.6,66.4,65.0,60.3,54.0,86,55,31,29.84,29.84,5,1,6,0.00
2013-8-16,94.9,79.2,61.6,65.4,57.7,51.4,83,52,27,29.84,29.84,9,2,11,0.00
2013-8-17,97.0,81.1,63.4,66.3,53.0,42.2,77,43,16,29.84,29.84,10,2,16,0.00
2013-8-18,95.3,80.5,64.9,59.4,53.1,47.6,65,41,20,29.84,29.84,22,3,25,0.00
2013-8-19,94.9,80.1,64.9,57.0,52.2,47.5,65,41,21,29.84,29.84,11,2,18,0.00
2013-8-20,94.6,78.7,67.6,60.8,55.5,50.4,77,47,24,29.84,29.84,21,3,23,0.00
2013-8-21,88.6,77.4,65.3,61.2,57.2,52.8,77,52,31,29.84,29.84,13,3,14,0.00
2013-8-22,93.3,78.3,61.8,61.3,54.5,44.9,78,48,20,29.84,29.84,13,3,16,0.00
2013-8-23,92.1,76.4,61.0,63.1,53.8,48.1,90,51,23,29.84,29.84,12,3,17,0.18
2013-8-24,79.4,70.3,63.1,64.1,61.1,58.3,93,74,52,29.84,29.76,10,2,13,0.08
2013-8-25,87.3,72.0,63.4,68.5,63.5,59.5,92,77,42,29.76,29.76,21,2,21,0.04
2013-8-26,92.0,78.0,65.9,67.4,59.7,52.2,92,58,29,29.76,29.76,13,4,18,0.00
2013-8-27,90.1,76.2,61.4,61.8,56.0,49.9,75,52,26,29.76,29.76,12,2,14,0.02
2013-8-28,83.9,72.7,62.6,67.1,60.5,55.9,90,67,43,29.76,29.76,15,2,17,0.11
2013-8-29,78.6,68.8,65.5,67.1,64.5,62.7,95,87,59,29.84,29.76,14,1,16,0.18
2013-8-30,77.5,69.8,63.8,67.0,63.9,60.5,96,83,57,29.94,29.83,8,1,8,0.01
2013-8-31,89.7,75.1,60.3,65.8,60.3,56.5,93,64,34,29.94,29.76,10,3,16,0.01